createdAt,value
2024-05-09T00:00:35.451Z,6.15
2024-05-09T00:03:07.247Z,6.50
2024-05-09T00:05:34.074Z,6.30
2024-05-09T00:08:00.876Z,5.75
2024-05-09T00:10:35.378Z,6.53
2024-05-09T00:13:04.450Z,6.55
2024-05-09T00:15:31.052Z,6.18
2024-05-09T00:17:57.628Z,5.78
2024-05-09T00:20:28.511Z,6.65
2024-05-09T00:23:02.650Z,6.03
2024-05-09T00:25:29.112Z,6.22
2024-05-09T00:27:55.527Z,6.47
2024-05-09T00:30:31.049Z,6.60
2024-05-09T00:33:01.347Z,6.40
2024-05-09T00:35:28.373Z,6.03
2024-05-09T00:37:54.935Z,6.72
2024-05-09T00:40:30.833Z,6.82
2024-05-09T00:43:05.161Z,6.78
2024-05-09T00:45:31.615Z,7.03
2024-05-09T00:47:59.459Z,6.75
2024-05-09T00:50:34.070Z,5.70
2024-05-09T00:53:03.345Z,5.35
2024-05-09T00:55:30.016Z,6.60
2024-05-09T00:57:56.447Z,6.30
2024-05-09T01:00:31.400Z,6.00
2024-05-09T01:03:04.786Z,5.88
2024-05-09T01:05:32.249Z,6.38
2024-05-09T01:07:58.815Z,6.45
2024-05-09T01:10:32.292Z,6.95
2024-05-09T01:13:01.343Z,5.57
2024-05-09T01:15:27.766Z,6.25
2024-05-09T01:17:55.694Z,7.15
2024-05-09T01:20:31.820Z,5.53
2024-05-09T01:23:06.995Z,6.20
2024-05-09T01:25:34.701Z,6.00
2024-05-09T01:28:01.372Z,6.28
2024-05-09T01:30:34.180Z,5.72
2024-05-09T01:33:03.601Z,6.13
2024-05-09T01:35:30.376Z,5.85
2024-05-09T01:37:57.200Z,6.38
2024-05-09T01:40:33.320Z,6.18
2024-05-09T01:43:04.231Z,6.43
2024-05-09T01:45:30.635Z,7.00
2024-05-09T01:47:57.309Z,6.28
2024-05-09T01:50:35.741Z,6.30
2024-05-09T01:53:05.900Z,5.45
2024-05-09T01:55:32.472Z,5.43
2024-05-09T01:57:58.880Z,5.97
2024-05-09T02:00:36.807Z,6.63
2024-05-09T02:03:12.709Z,5.80
2024-05-09T02:05:42.765Z,7.05
2024-05-09T02:08:12.784Z,5.93
2024-05-09T02:10:39.243Z,6.70
2024-05-09T02:13:07.651Z,6.43
2024-05-09T02:15:34.093Z,7.22
2024-05-09T02:18:00.860Z,5.43
2024-05-09T02:20:33.878Z,5.10
2024-05-09T02:23:04.993Z,6.70
2024-05-09T02:25:32.037Z,5.63
2024-05-09T02:27:58.703Z,6.10
2024-05-09T02:30:35.092Z,5.07
2024-05-09T02:33:06.326Z,6.35
2024-05-09T02:35:35.569Z,5.45
2024-05-09T02:38:02.245Z,6.15
2024-05-09T02:40:36.147Z,6.90
2024-05-09T02:43:05.857Z,6.20
2024-05-09T02:45:32.656Z,6.00
2024-05-09T02:47:59.438Z,5.85
2024-05-09T02:50:34.316Z,5.65
2024-05-09T02:53:05.416Z,6.80
2024-05-09T02:55:32.147Z,5.97
2024-05-09T02:57:58.674Z,5.65
2024-05-09T03:00:34.287Z,6.32
2024-05-09T03:03:05.827Z,6.85
2024-05-09T03:05:32.635Z,6.22
2024-05-09T03:08:01.800Z,5.65
2024-05-09T03:10:29.089Z,5.97
2024-05-09T03:13:05.547Z,6.65
2024-05-09T03:15:32.968Z,6.78
2024-05-09T03:18:00.247Z,5.63
2024-05-09T03:20:33.042Z,5.97
2024-05-09T03:23:01.801Z,5.45
2024-05-09T03:25:28.299Z,5.95
2024-05-09T03:27:54.732Z,6.60
2024-05-09T03:30:30.994Z,7.00
2024-05-09T03:33:09.454Z,6.72
2024-05-09T03:35:38.216Z,6.15
2024-05-09T03:38:04.892Z,5.63
2024-05-09T03:40:31.514Z,6.00
2024-05-09T03:42:58.731Z,5.38
2024-05-09T03:45:25.260Z,5.47
2024-05-09T03:47:52.087Z,7.18
2024-05-09T03:50:26.126Z,5.20
2024-05-09T03:52:59.811Z,5.60
2024-05-09T03:55:26.298Z,6.22
2024-05-09T03:57:52.756Z,6.25
2024-05-09T04:00:26.551Z,6.53
2024-05-09T04:03:01.668Z,5.75
2024-05-09T04:05:29.958Z,6.00
2024-05-09T04:07:56.505Z,5.85
2024-05-09T04:10:30.296Z,7.47
2024-05-09T04:12:59.592Z,5.75
2024-05-09T04:15:26.308Z,7.47
2024-05-09T04:17:53.115Z,6.70
2024-05-09T04:20:33.118Z,5.47
2024-05-09T04:23:05.336Z,6.78
2024-05-09T04:25:32.338Z,6.07
2024-05-09T04:27:58.784Z,5.53
2024-05-09T04:30:34.574Z,6.38
2024-05-09T04:33:05.519Z,5.88
2024-05-09T04:35:32.380Z,7.13
2024-05-09T04:37:59.025Z,5.55
2024-05-09T04:40:32.874Z,5.95
2024-05-09T04:43:02.119Z,6.68
2024-05-09T04:45:28.533Z,5.65
2024-05-09T04:47:56.307Z,6.13
2024-05-09T04:50:30.197Z,6.28
2024-05-09T04:53:02.952Z,7.78
2024-05-09T04:55:29.519Z,7.10
2024-05-09T04:57:55.944Z,6.65
2024-05-09T05:00:31.719Z,6.10
2024-05-09T05:03:05.708Z,7.82
2024-05-09T05:05:32.564Z,6.88
2024-05-09T05:07:59.106Z,6.28
2024-05-09T05:10:33.225Z,6.45
2024-05-09T05:13:21.811Z,6.75
2024-05-09T05:18:16.255Z,6.28
2024-05-09T05:20:43.277Z,5.90
2024-05-09T05:23:14.370Z,6.03
2024-05-09T05:25:41.526Z,6.65
2024-05-09T05:28:07.977Z,5.93
2024-05-09T05:30:35.414Z,6.03
2024-05-09T05:33:02.071Z,5.80
2024-05-09T05:35:28.830Z,5.93
2024-05-09T05:37:58.228Z,5.60
2024-05-09T05:40:32.989Z,5.85
2024-05-09T05:43:03.914Z,5.68
2024-05-09T05:45:30.437Z,5.80
2024-05-09T05:47:57.049Z,5.80
2024-05-09T05:50:28.165Z,6.40
2024-05-09T05:53:02.000Z,5.82
2024-05-09T05:55:28.556Z,6.25
2024-05-09T05:57:54.979Z,6.18
2024-05-09T06:00:29.403Z,6.05
2024-05-09T06:03:02.097Z,9.60
2024-05-09T06:05:28.819Z,6.40
2024-05-09T06:07:55.402Z,6.82
2024-05-09T06:10:26.278Z,7.05
2024-05-09T06:13:01.342Z,7.05
2024-05-09T06:15:27.834Z,8.05
2024-05-09T06:17:54.544Z,8.88
2024-05-09T06:20:31.232Z,7.35
2024-05-09T06:23:02.990Z,8.48
2024-05-09T06:25:29.480Z,7.82
2024-05-09T06:27:56.003Z,9.02
2024-05-09T06:30:30.030Z,7.32
2024-05-09T06:33:05.153Z,8.85
2024-05-09T06:35:32.359Z,7.45
2024-05-09T06:37:59.043Z,9.18
2024-05-09T06:40:30.035Z,8.50
2024-05-09T06:43:03.218Z,7.25
2024-05-09T06:45:29.663Z,7.03
2024-05-09T06:47:56.341Z,7.95
2024-05-09T06:50:28.280Z,8.88
2024-05-09T06:52:58.212Z,8.07
2024-05-09T06:55:24.726Z,8.02
2024-05-09T06:57:51.488Z,6.82
2024-05-09T07:00:26.834Z,8.85
2024-05-09T07:02:57.641Z,6.75
2024-05-09T07:05:25.574Z,8.23
2024-05-09T07:07:52.449Z,6.65
2024-05-09T07:10:25.767Z,7.55
2024-05-09T07:12:59.015Z,7.00
2024-05-09T07:15:25.463Z,8.38
2024-05-09T07:17:52.026Z,8.98
2024-05-09T07:20:23.754Z,7.22
2024-05-09T07:22:58.638Z,8.18
2024-05-09T07:25:25.217Z,8.48
2024-05-09T07:27:51.697Z,8.43
2024-05-09T07:30:23.845Z,9.32
2024-05-09T07:32:57.613Z,8.40
2024-05-09T07:35:24.164Z,8.68
2024-05-09T07:37:50.805Z,8.85
2024-05-09T07:40:25.007Z,9.00
2024-05-09T07:42:59.217Z,9.15
2024-05-09T07:45:44.961Z,10.38
2024-05-09T07:49:45.162Z,11.48
2024-05-09T07:53:50.924Z,8.02
2024-05-09T07:56:22.376Z,12.55
2024-05-09T07:58:51.114Z,12.02
2024-05-09T08:01:17.998Z,18.02
2024-05-09T08:03:44.925Z,8.68
2024-05-09T08:06:11.553Z,10.30
2024-05-09T08:08:38.332Z,8.82
2024-05-09T08:11:06.395Z,12.25
2024-05-09T08:13:32.906Z,9.27
2024-05-09T08:15:59.525Z,7.57
2024-05-09T08:18:26.127Z,9.60
2024-05-09T08:20:52.705Z,8.93
2024-05-09T08:23:19.311Z,11.10
2024-05-09T08:25:49.282Z,9.43
2024-05-09T08:28:16.198Z,9.68
2024-05-09T08:30:43.070Z,9.55
2024-05-09T08:33:09.651Z,8.57
2024-05-09T08:35:36.368Z,9.75
2024-05-09T08:38:03.514Z,10.52
2024-05-09T08:40:35.568Z,10.25
2024-05-09T08:43:06.809Z,10.35
2024-05-09T08:45:34.662Z,10.98
2024-05-09T08:48:05.762Z,11.55
2024-05-09T08:50:38.819Z,7.35
2024-05-09T08:53:06.808Z,8.75
2024-05-09T08:55:33.410Z,9.30
2024-05-09T08:58:01.282Z,8.98
2024-05-09T09:00:35.831Z,9.88
2024-05-09T09:03:05.757Z,8.68
2024-05-09T09:05:33.672Z,11.63
2024-05-09T09:08:00.425Z,11.65
2024-05-09T09:10:31.990Z,9.93
2024-05-09T09:13:04.975Z,10.02
2024-05-09T09:15:32.133Z,9.07
2024-05-09T09:17:59.801Z,12.13
2024-05-09T09:20:34.135Z,9.55
2024-05-09T09:23:03.290Z,7.95
2024-05-09T09:25:30.829Z,7.32
2024-05-09T09:27:57.856Z,7.57
2024-05-09T09:30:34.652Z,9.20
2024-05-09T09:33:04.324Z,9.13
2024-05-09T09:35:30.983Z,10.55
2024-05-09T09:38:01.920Z,7.85
2024-05-09T09:40:34.938Z,8.88
2024-05-09T09:43:07.074Z,10.00
2024-05-09T09:45:35.967Z,8.38
2024-05-09T09:48:02.712Z,7.00
2024-05-09T09:50:34.332Z,8.23
2024-05-09T09:53:01.703Z,7.22
2024-05-09T09:55:28.372Z,7.63
2024-05-09T09:57:55.875Z,7.68
2024-05-09T10:00:27.541Z,9.18
2024-05-09T10:02:59.169Z,7.63
2024-05-09T10:05:26.229Z,9.48
2024-05-09T10:07:53.259Z,8.23
2024-05-09T10:10:30.218Z,8.82
2024-05-09T10:13:00.153Z,7.78
2024-05-09T10:15:26.730Z,7.65
2024-05-09T10:17:53.340Z,9.35
2024-05-09T10:20:28.153Z,8.77
2024-05-09T10:22:58.721Z,9.63
2024-05-09T10:25:25.268Z,8.75
2024-05-09T10:27:55.592Z,10.43
2024-05-09T10:30:29.802Z,8.80
2024-05-09T10:33:02.270Z,8.02
2024-05-09T10:35:31.111Z,6.97
2024-05-09T10:38:01.856Z,7.18
2024-05-09T10:40:31.434Z,8.13
2024-05-09T10:43:01.900Z,7.20
2024-05-09T10:45:30.037Z,7.60
2024-05-09T10:47:56.786Z,8.15
2024-05-09T10:50:28.591Z,7.07
2024-05-09T10:52:58.412Z,6.68
2024-05-09T10:55:25.244Z,7.78
2024-05-09T10:57:51.781Z,7.15
2024-05-09T11:00:27.326Z,10.80
2024-05-09T11:02:59.643Z,7.93
2024-05-09T11:05:26.879Z,6.40
2024-05-09T11:07:53.520Z,7.00
2024-05-09T11:10:27.385Z,6.68
2024-05-09T11:12:58.348Z,5.90
2024-05-09T11:15:25.859Z,9.48
2024-05-09T11:17:52.475Z,8.98
2024-05-09T11:20:26.605Z,9.10
2024-05-09T11:22:57.627Z,8.13
2024-05-09T11:25:24.106Z,6.20
2024-05-09T11:27:50.679Z,7.97
2024-05-09T11:30:26.651Z,9.13
2024-05-09T11:32:58.721Z,6.28
2024-05-09T11:35:26.417Z,7.95
2024-05-09T11:37:52.934Z,7.80
2024-05-09T11:40:25.334Z,7.10
2024-05-09T11:45:21.927Z,7.05
2024-05-09T11:47:48.623Z,7.95
2024-05-09T11:50:22.603Z,6.93
2024-05-09T11:52:56.244Z,7.28
2024-05-09T11:55:26.802Z,7.88
2024-05-09T11:57:54.549Z,7.00
2024-05-09T12:00:29.286Z,7.57
2024-05-09T12:03:04.540Z,5.88
2024-05-09T12:05:34.508Z,6.53
2024-05-09T12:08:01.286Z,6.43
2024-05-09T12:10:33.281Z,7.60
2024-05-09T12:13:03.153Z,6.47
2024-05-09T12:15:30.744Z,6.00
2024-05-09T12:17:59.954Z,6.30
2024-05-09T12:20:35.445Z,6.60
2024-05-09T12:23:05.122Z,8.13
2024-05-09T12:25:31.600Z,6.78
2024-05-09T12:27:58.738Z,7.88
2024-05-09T12:30:34.444Z,7.18
2024-05-09T12:33:05.682Z,5.97
2024-05-09T12:35:33.111Z,7.00
2024-05-09T12:37:59.872Z,5.90
2024-05-09T12:40:34.600Z,7.88
2024-05-09T12:43:04.616Z,5.72
2024-05-09T12:45:31.980Z,8.90
2024-05-09T12:47:58.699Z,7.60
2024-05-09T12:50:31.914Z,7.10
2024-05-09T12:53:01.009Z,7.22
2024-05-09T12:55:28.536Z,9.38
2024-05-09T12:57:56.842Z,7.50
2024-05-09T13:00:28.289Z,6.88
2024-05-09T13:03:00.230Z,5.88
2024-05-09T13:05:27.063Z,5.50
2024-05-09T13:07:53.662Z,9.20
2024-05-09T13:10:28.861Z,6.45
2024-05-09T13:12:59.250Z,5.95
2024-05-09T13:15:25.915Z,6.20
2024-05-09T13:17:52.473Z,4.90
2024-05-09T13:20:26.277Z,7.18
2024-05-09T13:23:00.019Z,6.82
2024-05-09T13:25:26.659Z,5.70
2024-05-09T13:27:53.313Z,7.25
2024-05-09T13:30:28.777Z,8.27
2024-05-09T13:33:01.946Z,4.97
2024-05-09T13:35:28.530Z,5.72
2024-05-09T13:37:54.983Z,6.80
2024-05-09T13:40:29.979Z,6.80
2024-05-09T13:43:01.830Z,5.70
2024-05-09T13:45:28.431Z,5.28
2024-05-09T13:47:55.140Z,5.82
2024-05-09T13:50:30.916Z,6.60
2024-05-09T13:53:01.724Z,4.50
2024-05-09T13:55:28.389Z,5.43
2024-05-09T13:57:55.365Z,7.47
2024-05-09T14:00:37.457Z,6.50
2024-05-09T14:03:08.586Z,5.32
2024-05-09T14:05:35.412Z,4.40
2024-05-09T14:08:02.000Z,5.40
2024-05-09T14:10:31.260Z,6.75
2024-05-09T14:12:58.752Z,5.47
2024-05-09T14:15:25.256Z,8.30
2024-05-09T14:17:51.774Z,6.70
2024-05-09T14:20:28.225Z,6.65
2024-05-09T14:22:57.932Z,9.85
2024-05-09T14:25:26.435Z,6.97
2024-05-09T14:27:55.036Z,7.95
2024-05-09T14:30:30.457Z,6.65
2024-05-09T14:33:02.949Z,5.10
2024-05-09T14:35:29.556Z,6.20
2024-05-09T14:37:56.039Z,5.60
2024-05-09T14:40:35.734Z,7.70
2024-05-09T14:43:07.739Z,7.05
2024-05-09T14:45:35.106Z,9.38
2024-05-09T14:48:02.384Z,6.53
2024-05-09T14:50:35.428Z,7.13
2024-05-09T14:53:06.261Z,7.93
2024-05-09T14:55:35.730Z,5.43
2024-05-09T14:58:04.238Z,6.35
2024-05-09T15:00:35.856Z,4.88
2024-05-09T15:03:04.073Z,7.00
2024-05-09T15:05:30.799Z,4.88
2024-05-09T15:07:57.586Z,5.50
2024-05-09T15:10:33.337Z,9.63
2024-05-09T15:13:02.295Z,6.68
2024-05-09T15:15:28.802Z,6.18
2024-05-09T15:17:55.755Z,6.53
2024-05-09T15:20:30.946Z,4.82
2024-05-09T15:23:01.848Z,7.78
2024-05-09T15:25:28.418Z,7.90
2024-05-09T15:27:55.086Z,7.55
2024-05-09T15:30:29.912Z,6.75
2024-05-09T15:32:58.969Z,5.05
2024-05-09T15:35:25.470Z,7.00
2024-05-09T15:37:51.939Z,8.07
2024-05-09T15:40:26.475Z,14.45
2024-05-09T15:43:02.020Z,9.20
2024-05-09T15:45:29.260Z,9.10
2024-05-09T15:47:56.277Z,9.35
2024-05-09T15:50:32.328Z,8.65
2024-05-09T15:53:04.143Z,6.97
2024-05-09T15:55:33.994Z,10.05
2024-05-09T15:58:01.887Z,14.20
2024-05-09T16:00:36.567Z,10.80
2024-05-09T16:03:06.908Z,6.85
2024-05-09T16:05:33.807Z,11.18
2024-05-09T16:08:00.633Z,10.05
2024-05-09T16:10:32.401Z,6.35
2024-05-09T16:13:00.555Z,8.63
2024-05-09T16:15:27.087Z,13.40
2024-05-09T16:17:54.365Z,9.73
2024-05-09T16:20:34.030Z,8.93
2024-05-09T16:23:05.736Z,8.38
2024-05-09T16:25:32.222Z,11.40
2024-05-09T16:27:58.851Z,11.82
2024-05-09T16:30:31.999Z,7.65
2024-05-09T16:33:03.018Z,9.95
2024-05-09T16:35:29.886Z,7.50
2024-05-09T16:37:56.457Z,12.75
2024-05-09T16:40:30.305Z,17.55
2024-05-09T16:43:04.307Z,11.32
2024-05-09T16:45:31.246Z,11.95
2024-05-09T16:47:58.935Z,9.07
2024-05-09T16:50:29.654Z,11.55
2024-05-09T16:52:59.508Z,7.78
2024-05-09T16:55:26.120Z,8.90
2024-05-09T16:57:52.758Z,7.85
2024-05-09T17:00:30.868Z,6.35
2024-05-09T17:03:05.885Z,10.27
2024-05-09T17:05:32.688Z,7.32
2024-05-09T17:07:59.321Z,7.35
2024-05-09T17:10:31.845Z,8.60
2024-05-09T17:13:00.678Z,7.75
2024-05-09T17:15:27.297Z,10.77
2024-05-09T17:17:53.970Z,7.88
2024-05-09T17:20:29.361Z,10.52
2024-05-09T17:23:00.329Z,8.75
2024-05-09T17:25:26.960Z,11.05
2024-05-09T17:27:56.048Z,7.78
2024-05-09T17:30:29.165Z,9.00
2024-05-09T17:33:02.049Z,11.63
2024-05-09T17:35:28.839Z,11.02
2024-05-09T17:37:55.371Z,7.60
2024-05-09T17:40:30.744Z,8.50
2024-05-09T17:43:01.020Z,9.30
2024-05-09T17:45:27.540Z,6.85
2024-05-09T17:47:54.249Z,14.13
2024-05-09T17:50:27.493Z,9.23
2024-05-09T17:53:03.182Z,7.05
2024-05-09T17:55:30.224Z,6.85
2024-05-09T17:57:57.063Z,7.40
2024-05-09T18:00:34.316Z,8.40
2024-05-09T18:03:06.357Z,7.82
2024-05-09T18:05:35.213Z,9.15
2024-05-09T18:08:02.091Z,9.90
2024-05-09T18:10:35.338Z,10.65
2024-05-09T18:13:05.462Z,8.02
2024-05-09T18:15:32.441Z,8.32
2024-05-09T18:18:02.467Z,7.00
2024-05-09T18:20:38.047Z,7.93
2024-05-09T18:23:10.393Z,8.93
2024-05-09T18:25:37.184Z,11.95
2024-05-09T18:28:03.930Z,7.65
2024-05-09T18:30:34.971Z,9.40
2024-05-09T18:33:03.825Z,8.77
2024-05-09T18:35:30.603Z,7.28
2024-05-09T18:37:57.011Z,8.90
2024-05-09T18:42:52.806Z,10.75
2024-05-09T18:45:19.314Z,7.97
2024-05-09T18:47:46.040Z,8.35
2024-05-09T18:50:17.723Z,8.35
2024-05-09T18:52:54.458Z,8.85
2024-05-09T18:55:21.099Z,8.85
2024-05-09T18:57:47.933Z,9.13
2024-05-09T19:00:30.867Z,8.23
2024-05-09T19:03:02.182Z,9.63
2024-05-09T19:05:28.782Z,9.18
2024-05-09T19:07:55.447Z,10.48
2024-05-09T19:10:25.610Z,8.38
2024-05-09T19:12:53.133Z,9.43
2024-05-09T19:15:19.673Z,9.82
2024-05-09T19:17:48.655Z,8.05
2024-05-09T19:20:24.887Z,11.02
2024-05-09T19:22:55.348Z,11.90
2024-05-09T19:25:21.836Z,11.13
2024-05-09T19:27:48.354Z,13.85
2024-05-09T19:30:21.894Z,9.65
2024-05-09T19:32:56.562Z,15.95
2024-05-09T19:35:23.017Z,14.00
2024-05-09T19:37:51.435Z,21.90
2024-05-09T19:40:24.795Z,17.42
2024-05-09T19:42:57.099Z,18.70
2024-05-09T19:45:23.608Z,16.83
2024-05-09T19:47:52.726Z,17.67
2024-05-09T19:50:26.808Z,15.55
2024-05-09T19:53:01.952Z,14.40
2024-05-09T19:55:28.438Z,13.15
2024-05-09T19:57:54.968Z,17.65
2024-05-09T20:00:29.109Z,16.00
2024-05-09T20:03:01.695Z,14.15
2024-05-09T20:05:30.734Z,12.45
2024-05-09T20:07:57.612Z,14.55
2024-05-09T20:10:29.538Z,12.55
2024-05-09T20:12:58.848Z,17.05
2024-05-09T20:15:25.353Z,13.73
2024-05-09T20:17:51.990Z,15.35
2024-05-09T20:20:28.560Z,13.68
2024-05-09T20:23:02.857Z,15.18
2024-05-09T20:25:29.346Z,12.60
2024-05-09T20:27:56.324Z,11.50
2024-05-09T20:30:30.452Z,16.02
2024-05-09T20:35:26.393Z,14.23
2024-05-09T20:37:52.888Z,15.40
2024-05-09T20:40:26.091Z,17.63
2024-05-09T20:42:58.584Z,12.45
2024-05-09T20:45:25.097Z,13.02
2024-05-09T20:47:51.653Z,11.45
2024-05-09T20:50:28.932Z,13.32
2024-05-09T20:53:03.216Z,11.38
2024-05-09T20:55:29.962Z,11.88
2024-05-09T20:57:56.839Z,12.18
2024-05-09T21:00:30.089Z,9.38
2024-05-09T21:03:04.736Z,12.88
2024-05-09T21:05:31.502Z,11.48
2024-05-09T21:07:58.056Z,9.90
2024-05-09T21:10:26.813Z,10.23
2024-05-09T21:12:53.808Z,11.02
2024-05-09T21:15:20.304Z,11.60
2024-05-09T21:17:46.942Z,14.55
2024-05-09T21:20:17.452Z,14.02
2024-05-09T21:22:47.158Z,10.75
2024-05-09T21:25:13.872Z,9.15
2024-05-09T21:27:40.519Z,13.35
2024-05-09T21:30:10.396Z,11.50
2024-05-09T21:32:42.399Z,11.10
2024-05-09T21:35:08.971Z,13.35
2024-05-09T21:37:35.417Z,10.05
2024-05-09T21:40:06.823Z,10.50
2024-05-09T21:42:35.469Z,10.43
2024-05-09T21:45:01.990Z,11.82
2024-05-09T21:47:28.576Z,12.50
2024-05-09T21:49:55.126Z,10.43
2024-05-09T21:52:21.705Z,11.20
2024-05-09T21:54:48.181Z,9.40
2024-05-09T21:57:15.142Z,7.60
2024-05-09T21:59:42.016Z,17.17
2024-05-09T22:02:08.912Z,9.82
2024-05-09T22:04:35.570Z,8.52
2024-05-09T22:07:04.558Z,12.55
2024-05-09T22:09:31.527Z,9.52
2024-05-09T22:11:58.217Z,10.65
2024-05-09T22:14:25.137Z,10.48
2024-05-09T22:16:51.580Z,10.95
2024-05-09T22:19:18.103Z,8.82
2024-05-09T22:21:44.630Z,7.85
2024-05-09T22:24:11.074Z,8.00
2024-05-09T22:26:37.495Z,11.95
2024-05-09T22:29:04.918Z,9.25
2024-05-09T22:31:31.368Z,10.73
2024-05-09T22:33:58.024Z,8.90
2024-05-09T22:36:24.747Z,10.07
2024-05-09T22:38:51.193Z,10.77
2024-05-09T22:41:17.652Z,9.02
2024-05-09T22:43:44.080Z,7.85
2024-05-09T22:46:10.537Z,8.70
2024-05-09T22:48:37.174Z,7.55
2024-05-09T22:51:03.845Z,10.80
2024-05-09T22:53:33.088Z,8.88
2024-05-09T22:55:59.637Z,11.75
2024-05-09T22:58:26.181Z,10.05
2024-05-09T23:00:54.004Z,8.02
2024-05-09T23:03:21.983Z,13.40
2024-05-09T23:05:49.188Z,8.43
2024-05-09T23:08:15.607Z,10.18
2024-05-09T23:10:42.060Z,8.05
2024-05-09T23:13:08.824Z,8.68
2024-05-09T23:15:36.062Z,8.50
2024-05-09T23:18:02.664Z,8.45
2024-05-09T23:20:36.381Z,10.77
2024-05-09T23:25:31.947Z,8.57
2024-05-09T23:28:01.472Z,8.50
2024-05-09T23:30:34.759Z,9.00
2024-05-09T23:33:05.884Z,9.68
2024-05-09T23:35:35.602Z,8.27
2024-05-09T23:38:02.107Z,8.90
2024-05-09T23:40:37.683Z,7.75
2024-05-09T23:43:07.676Z,7.57
2024-05-09T23:45:34.732Z,8.07
2024-05-09T23:48:01.638Z,9.27
2024-05-09T23:50:34.460Z,7.68
2024-05-09T23:53:04.303Z,9.43
2024-05-09T23:55:31.801Z,6.93
2024-05-09T23:57:58.658Z,7.78
